Time;durP1;ratioP1;P1;durP2;ratioP2;P2;SDS_P1;SDS_P2;PMS_P1;PMS_P2;Temp;Humidity;BMP_temperature;BMP_pressure;BME280_temperature;BME280_humidity;BME280_pressure;Samples;Min_cycle;Max_cycle;Signal;HPM_P1;HPM_P2
2023/12/27 00:01:16;;;;;;;16.05;9.60;;;;;;;5.83;67.97;99587.56;4962075;28;20035;-95
2023/12/27 00:03:41;;;;;;;18.20;9.88;;;;;;;5.74;68.00;99566.75;4930549;28;20030;-94
2023/12/27 00:06:07;;;;;;;18.23;9.52;;;;;;;5.79;68.45;99585.56;4946364;28;20027;-95
2023/12/27 00:08:35;;;;;;;23.02;11.82;;;;;;;5.57;68.26;99555.94;4930475;28;20160;-94
2023/12/27 00:11:01;;;;;;;18.38;10.15;;;;;;;5.62;68.62;99564.06;4954761;28;20043;-94
2023/12/27 00:13:27;;;;;;;19.75;9.10;;;;;;;5.59;68.19;99553.84;4945066;28;20554;-93
2023/12/27 00:15:53;;;;;;;15.18;7.78;;;;;;;5.73;67.75;99578.47;4963770;28;20058;-94
2023/12/27 00:18:18;;;;;;;15.13;7.47;;;;;;;5.93;67.58;99605.66;4965127;28;20040;-94
2023/12/27 00:20:44;;;;;;;19.17;10.15;;;;;;;5.97;67.64;99603.38;4948944;28;20042;-93
2023/12/27 00:23:10;;;;;;;20.92;11.02;;;;;;;5.75;67.65;99563.00;4949200;28;20027;-94
2023/12/27 00:25:35;;;;;;;14.50;8.48;;;;;;;5.75;68.00;99563.84;4949265;28;20030;-92
2023/12/27 00:28:01;;;;;;;13.80;8.55;;;;;;;5.81;67.59;99572.78;4965033;28;20034;-94
2023/12/27 00:30:26;;;;;;;13.23;8.25;;;;;;;5.90;67.24;99581.28;4948275;28;20030;-94
2023/12/27 00:32:52;;;;;;;11.57;7.35;;;;;;;5.81;67.36;99559.41;4948418;28;20034;-94
2023/12/27 00:35:18;;;;;;;13.05;7.78;;;;;;;6.03;67.29;99605.13;4964328;28;20035;-93
2023/12/27 00:37:43;;;;;;;13.70;8.32;;;;;;;5.77;67.57;99574.28;4965296;28;20026;-94
2023/12/27 00:40:11;;;;;;;17.45;8.48;;;;;;;5.84;67.38;99591.84;4964580;28;20074;-96
2023/12/27 00:42:37;;;;;;;20.08;10.15;;;;;;;5.95;67.28;99606.28;4965528;28;20536;-95
2023/12/27 00:45:03;;;;;;;37.92;16.40;;;;;;;5.80;67.24;99584.53;4964957;28;20089;-95
2023/12/27 00:47:29;;;;;;;21.23;10.82;;;;;;;5.77;67.15;99588.47;4948250;28;20022;-94
2023/12/27 00:49:55;;;;;;;21.08;10.27;;;;;;;5.82;67.40;99593.13;4948805;28;20026;-95
2023/12/27 00:52:20;;;;;;;21.05;9.27;;;;;;;5.87;67.48;99598.56;4980187;28;20543;-93
2023/12/27 00:54:46;;;;;;;21.90;10.75;;;;;;;5.82;67.17;99599.28;4948311;28;20511;-95
2023/12/27 00:57:14;;;;;;;22.55;11.05;;;;;;;5.79;67.07;99593.56;4964950;28;20054;-94
2023/12/27 00:59:42;;;;;;;28.95;13.18;;;;;;;5.77;67.28;99585.81;4964080;28;20022;-95
2023/12/27 01:02:08;;;;;;;27.02;13.05;;;;;;;5.78;66.75;99582.06;4947941;28;20026;-95
2023/12/27 01:04:35;;;;;;;29.33;13.27;;;;;;;5.84;66.75;99585.69;4964039;28;20069;-95
2023/12/27 01:07:01;;;;;;;17.58;10.43;;;;;;;5.93;67.07;99596.84;4963581;28;20034;-94
2023/12/27 01:09:27;;;;;;;18.63;9.48;;;;;;;5.95;66.69;99608.94;4948195;28;20129;-93
2023/12/27 01:11:54;;;;;;;21.15;10.00;;;;;;;5.87;66.49;99591.38;4960177;28;20065;-95
2023/12/27 01:14:19;;;;;;;16.08;8.95;;;;;;;5.96;66.76;99601.75;4963521;28;20193;-94
2023/12/27 01:16:45;;;;;;;16.15;8.07;;;;;;;5.95;66.63;99594.78;4948394;28;20113;-94
2023/12/27 01:19:11;;;;;;;18.45;8.80;;;;;;;6.27;65.87;99635.34;4947494;28;20026;-94
2023/12/27 01:21:36;;;;;;;13.55;8.27;;;;;;;6.16;66.08;99604.06;4948732;28;20041;-92
2023/12/27 01:24:02;;;;;;;21.30;8.60;;;;;;;6.33;65.50;99629.06;4951924;28;20485;-93
2023/12/27 01:26:28;;;;;;;17.00;7.70;;;;;;;6.23;65.41;99586.88;4947250;28;20034;-94
2023/12/27 01:28:53;;;;;;;21.00;9.90;;;;;;;6.38;65.67;99605.09;4947854;28;20045;-93
2023/12/27 01:31:19;;;;;;;14.55;7.15;;;;;;;6.43;65.02;99605.22;4947707;28;20057;-94
2023/12/27 01:33:44;;;;;;;16.00;8.48;;;;;;;6.36;65.32;99587.66;4947603;28;20029;-94
2023/12/27 01:36:12;;;;;;;13.73;7.53;;;;;;;6.38;65.63;99604.28;4947525;28;20057;-95
2023/12/27 01:38:38;;;;;;;13.43;6.68;;;;;;;6.40;65.07;99608.34;4948279;28;20027;-95
2023/12/27 01:41:03;;;;;;;12.68;6.43;;;;;;;6.54;65.54;99621.47;4961239;28;20030;-95
2023/12/27 01:43:29;;;;;;;10.02;5.80;;;;;;;6.36;65.39;99596.50;4962610;28;20062;-94
2023/12/27 01:45:54;;;;;;;14.45;8.27;;;;;;;6.39;64.78;99598.72;4963434;28;20026;-93
2023/12/27 01:48:20;;;;;;;13.20;6.60;;;;;;;6.48;64.88;99609.84;4963408;28;20060;-94
2023/12/27 01:50:49;;;;;;;12.20;6.85;;;;;;;6.43;64.99;99607.88;4963050;28;20058;-94
2023/12/27 01:53:16;;;;;;;11.32;6.03;;;;;;;6.50;64.92;99607.75;4963726;28;20029;-93
2023/12/27 01:55:46;;;;;;;12.10;5.57;;;;;;;6.47;64.63;99603.69;4951494;28;20100;-94
2023/12/27 01:58:12;;;;;;;12.23;5.97;;;;;;;6.54;64.56;99608.91;4958467;28;20521;-94
2023/12/27 02:00:39;;;;;;;8.93;5.10;;;;;;;6.58;64.49;99619.94;4948623;28;20041;-94
2023/12/27 02:03:06;;;;;;;14.75;6.00;;;;;;;6.44;64.81;99612.19;4961991;28;20032;-95
2023/12/27 02:05:32;;;;;;;8.98;5.35;;;;;;;6.48;64.84;99621.34;4962017;28;20072;-93
2023/12/27 02:08:00;;;;;;;15.18;6.32;;;;;;;6.45;64.98;99629.03;4962605;28;20484;-94
2023/12/27 02:10:27;;;;;;;11.50;6.28;;;;;;;6.44;64.82;99632.75;4953212;28;20401;-94
2023/12/27 02:12:54;;;;;;;10.48;6.13;;;;;;;6.41;65.02;99641.25;4947111;28;20029;-94
2023/12/27 02:15:19;;;;;;;11.90;5.95;;;;;;;6.33;64.90;99634.41;4943738;28;20153;-95
2023/12/27 02:17:45;;;;;;;19.98;7.25;;;;;;;6.46;65.00;99671.59;4952650;28;20059;-91
2023/12/27 02:20:10;;;;;;;9.85;6.05;;;;;;;6.36;65.13;99660.66;4945354;28;20027;-91
2023/12/27 02:22:36;;;;;;;11.85;6.00;;;;;;;6.47;64.86;99675.06;4948436;28;20040;-91
2023/12/27 02:25:02;;;;;;;12.00;5.93;;;;;;;6.50;64.88;99674.63;4955372;28;20174;-92
2023/12/27 02:27:27;;;;;;;16.00;7.22;;;;;;;6.35;64.73;99647.53;4961068;28;20056;-92
2023/12/27 02:29:53;;;;;;;12.88;6.55;;;;;;;6.45;64.47;99664.63;4959036;28;20481;-92
2023/12/27 02:32:18;;;;;;;11.52;6.47;;;;;;;6.41;64.43;99665.31;4961472;28;20486;-93
2023/12/27 02:34:44;;;;;;;10.55;6.07;;;;;;;6.67;64.37;99691.56;4946276;28;20046;-93
2023/12/27 02:37:09;;;;;;;13.65;6.55;;;;;;;6.63;64.41;99679.72;4960575;28;20050;-92
2023/12/27 02:39:35;;;;;;;13.75;6.47;;;;;;;6.71;64.06;99672.41;4961110;28;20038;-92
2023/12/27 02:42:00;;;;;;;13.43;6.47;;;;;;;6.82;64.26;99704.47;4961819;28;20485;-93
2023/12/27 02:44:26;;;;;;;13.23;6.70;;;;;;;6.78;64.04;99689.94;4959359;28;20082;-93
2023/12/27 02:46:57;;;;;;;22.42;7.95;;;;;;;6.84;64.13;99693.53;4954761;28;20027;-93
2023/12/27 02:49:23;;;;;;;13.95;7.18;;;;;;;6.89;64.23;99685.63;4956280;28;20030;-93
2023/12/27 02:51:49;;;;;;;11.40;6.32;;;;;;;6.79;64.08;99666.69;4959746;28;20033;-91
2023/12/27 02:54:14;;;;;;;9.90;6.25;;;;;;;6.85;63.97;99679.91;4949726;28;20023;-91
2023/12/27 02:59:00;;;;;;;12.10;6.18;;;;;;;7.04;63.72;99699.31;5062257;27;1426042;-92
2023/12/27 03:01:25;;;;;;;16.17;7.15;;;;;;;6.99;63.74;99683.16;5074423;28;20119;-92
2023/12/27 03:03:51;;;;;;;12.55;6.45;;;;;;;6.99;63.57;99685.84;5073652;28;20031;-91
2023/12/27 03:06:16;;;;;;;14.90;7.28;;;;;;;6.98;63.92;99691.41;5058324;28;20031;-93
2023/12/27 03:08:42;;;;;;;13.43;6.45;;;;;;;6.97;63.89;99674.53;5056782;28;20024;-92
2023/12/27 03:11:07;;;;;;;12.05;4.78;;;;;;;7.18;64.62;99689.16;5074144;28;20496;-94
2023/12/27 03:13:33;;;;;;;9.27;4.97;;;;;;;7.34;64.56;99700.94;5057280;28;20020;-92
2023/12/27 03:16:04;;;;;;;7.28;4.25;;;;;;;7.37;64.09;99697.81;5056563;28;20032;-93
2023/12/27 03:18:30;;;;;;;8.33;4.47;;;;;;;7.41;64.19;99707.00;5058620;28;20503;-92
2023/12/27 03:20:55;;;;;;;8.55;3.17;;;;;;;7.43;64.42;99704.88;5057240;28;20020;-93
2023/12/27 03:23:21;;;;;;;9.85;4.63;;;;;;;7.54;64.22;99705.06;5057331;28;20031;-92
2023/12/27 03:25:46;;;;;;;9.30;4.28;;;;;;;7.57;63.95;99708.06;5057278;28;20040;-93
2023/12/27 03:28:12;;;;;;;6.50;2.50;;;;;;;7.79;64.66;99702.84;5056624;28;20024;-92
2023/12/27 03:30:37;;;;;;;6.45;2.80;;;;;;;7.90;64.27;99710.00;5057119;28;20028;-92
2023/12/27 03:33:03;;;;;;;5.20;2.80;;;;;;;8.04;64.11;99709.69;5056864;28;20024;-92
2023/12/27 03:35:29;;;;;;;5.00;2.28;;;;;;;8.30;63.29;99708.22;5056135;28;20022;-93
2023/12/27 03:37:55;;;;;;;6.38;2.50;;;;;;;8.43;62.53;99723.22;5058059;28;20066;-93
2023/12/27 03:40:21;;;;;;;6.47;2.65;;;;;;;8.60;62.45;99729.34;5072858;28;20005;-93
2023/12/27 03:42:46;;;;;;;6.75;2.33;;;;;;;8.67;61.51;99729.19;5056974;28;20032;-93
2023/12/27 03:45:12;;;;;;;8.00;2.78;;;;;;;8.80;61.00;99728.00;5058796;28;20060;-92
2023/12/27 03:47:37;;;;;;;8.18;2.40;;;;;;;8.76;61.43;99713.44;5061477;28;20058;-94
2023/12/27 03:50:04;;;;;;;8.52;2.75;;;;;;;8.91;60.90;99727.09;5056773;28;20448;-92
2023/12/27 03:52:29;;;;;;;8.27;3.10;;;;;;;8.95;60.36;99722.06;5073599;28;20486;-91
2023/12/27 03:54:55;;;;;;;6.32;2.60;;;;;;;8.93;60.68;99727.66;5056301;28;20020;-91
2023/12/27 03:57:20;;;;;;;10.13;3.20;;;;;;;8.97;60.49;99742.22;5075587;28;20422;-94
2023/12/27 03:59:46;;;;;;;6.90;2.60;;;;;;;8.82;60.99;99733.94;5056607;28;20020;-94
2023/12/27 04:02:11;;;;;;;8.95;3.42;;;;;;;8.73;61.01;99736.25;5056955;28;20039;-93
2023/12/27 04:04:40;;;;;;;6.53;3.00;;;;;;;8.75;60.96;99738.69;5059090;28;20032;-94
2023/12/27 04:07:05;;;;;;;9.15;3.20;;;;;;;8.54;61.49;99730.34;5071960;28;20130;-93
2023/12/27 04:09:31;;;;;;;8.10;2.88;;;;;;;8.59;61.46;99748.38;5066702;28;20024;-93
2023/12/27 04:11:56;;;;;;;7.90;3.00;;;;;;;8.65;62.06;99766.19;5044313;28;20024;-93
2023/12/27 04:14:22;;;;;;;7.50;3.17;;;;;;;8.50;61.81;99751.47;5059159;28;20028;-93
2023/12/27 04:16:47;;;;;;;10.30;3.65;;;;;;;8.32;62.13;99732.13;5043441;28;20027;-93
2023/12/27 04:19:13;;;;;;;9.82;3.30;;;;;;;8.21;62.46;99726.59;5059610;28;20032;-93
2023/12/27 04:21:41;;;;;;;6.85;3.17;;;;;;;8.35;62.19;99755.78;5059165;28;20028;-93
2023/12/27 04:24:08;;;;;;;6.88;3.78;;;;;;;8.24;62.58;99752.94;5060413;28;20395;-96
2023/12/27 04:26:37;;;;;;;10.30;4.30;;;;;;;8.22;62.54;99756.94;5044089;28;20028;-96
2023/12/27 04:29:02;;;;;;;10.85;4.78;;;;;;;8.09;62.84;99752.66;5045378;28;20017;-96
2023/12/27 04:31:31;;;;;;;12.45;4.93;;;;;;;8.19;62.70;99774.28;5043583;28;20142;-96
2023/12/27 04:33:57;;;;;;;13.15;5.63;;;;;;;8.01;63.24;99763.78;5060893;28;20035;-96
2023/12/27 04:36:22;;;;;;;9.45;3.65;;;;;;;7.96;63.41;99772.56;5044491;28;20191;-95
2023/12/27 04:38:48;;;;;;;9.82;4.28;;;;;;;7.88;63.92;99765.72;5043637;28;20439;-96
2023/12/27 04:41:14;;;;;;;9.32;3.70;;;;;;;7.99;63.83;99790.03;5044237;28;20024;-96
2023/12/27 04:43:39;;;;;;;7.70;3.75;;;;;;;7.90;63.98;99794.97;5044945;28;20027;-95
2023/12/27 04:46:07;;;;;;;6.82;3.40;;;;;;;7.85;64.33;99784.19;5044303;28;20029;-96
2023/12/27 04:48:36;;;;;;;7.05;3.72;;;;;;;7.80;64.40;99784.91;5044823;28;20028;-95
2023/12/27 04:51:01;;;;;;;9.85;3.45;;;;;;;7.79;64.41;99790.50;5044502;28;20032;-95
2023/12/27 04:53:27;;;;;;;6.97;3.25;;;;;;;7.83;64.59;99797.81;5044035;28;20460;-95
2023/12/27 04:55:53;;;;;;;5.55;3.33;;;;;;;7.75;65.01;99789.34;5043995;28;20036;-95
2023/12/27 04:58:19;;;;;;;7.82;4.28;;;;;;;7.67;64.59;99787.84;5059236;28;20048;-95
2023/12/27 05:00:44;;;;;;;8.15;3.50;;;;;;;7.78;65.18;99796.91;5043659;28;20024;-96
2023/12/27 05:03:10;;;;;;;7.70;3.85;;;;;;;7.81;65.45;99812.50;5045139;28;20545;-96
2023/12/27 05:05:35;;;;;;;9.52;4.40;;;;;;;7.67;65.78;99793.22;5042619;28;20029;-93
2023/12/27 05:08:01;;;;;;;11.07;4.05;;;;;;;7.63;65.83;99797.41;5060907;28;20021;-96
2023/12/27 05:10:27;;;;;;;6.25;4.00;;;;;;;7.57;65.61;99795.69;5043436;28;20024;-96
2023/12/27 05:12:53;;;;;;;9.13;3.83;;;;;;;7.66;66.06;99807.69;5060453;28;20024;-95
2023/12/27 05:15:19;;;;;;;7.22;3.70;;;;;;;7.58;66.61;99789.28;5043482;28;20020;-95
2023/12/27 05:17:45;;;;;;;7.07;4.05;;;;;;;7.69;66.47;99807.19;5043265;28;20070;-95
2023/12/27 05:20:11;;;;;;;8.55;3.20;;;;;;;7.52;66.44;99788.38;5060507;28;20117;-96
2023/12/27 05:22:40;;;;;;;8.65;3.70;;;;;;;7.66;66.47;99803.13;5043312;28;20474;-96
2023/12/27 05:25:07;;;;;;;7.05;2.83;;;;;;;7.60;66.56;99804.06;5059870;28;20025;-96
2023/12/27 05:27:36;;;;;;;6.70;3.13;;;;;;;7.61;66.74;99804.88;5060663;28;20032;-95
2023/12/27 05:30:08;;;;;;;7.72;3.30;;;;;;;7.65;67.25;99814.06;5044358;28;20039;-95
2023/12/27 05:32:34;;;;;;;10.35;3.20;;;;;;;7.56;67.17;99807.47;5060419;28;20097;-95
2023/12/27 05:35:01;;;;;;;7.30;2.90;;;;;;;7.55;67.65;99809.31;5043130;28;20032;-95
2023/12/27 05:37:29;;;;;;;5.70;3.33;;;;;;;7.65;67.53;99835.50;5047421;28;20028;-96
2023/12/27 05:39:57;;;;;;;7.97;3.38;;;;;;;7.56;67.76;99815.50;5044305;28;20028;-96
2023/12/27 05:42:24;;;;;;;10.20;3.63;;;;;;;7.49;67.86;99808.44;5043799;28;20042;-96
2023/12/27 05:44:49;;;;;;;10.27;3.70;;;;;;;7.56;68.54;99808.28;5059682;28;20063;-96
2023/12/27 05:47:16;;;;;;;9.57;3.85;;;;;;;7.65;68.45;99817.56;5043765;28;20020;-96
2023/12/27 05:49:41;;;;;;;6.75;3.88;;;;;;;7.82;68.18;99844.44;5076319;28;20105;-96
2023/12/27 05:52:07;;;;;;;8.05;4.70;;;;;;;7.74;68.36;99838.63;5043948;28;20078;-96
2023/12/27 05:54:33;;;;;;;8.13;3.65;;;;;;;7.70;68.90;99838.31;5044554;28;20426;-96
2023/12/27 05:56:59;;;;;;;11.60;4.05;;;;;;;7.94;68.71;99859.66;5043038;28;20055;-96
2023/12/27 05:59:25;;;;;;;11.32;4.00;;;;;;;7.95;68.66;99855.91;5044740;28;20115;-96
2023/12/27 06:01:54;;;;;;;8.35;2.72;;;;;;;8.03;69.01;99852.84;5043675;28;20103;-96
2023/12/27 06:04:20;;;;;;;6.43;3.42;;;;;;;8.08;68.72;99853.78;5042701;28;20105;-94
2023/12/27 06:06:49;;;;;;;8.65;4.03;;;;;;;8.10;67.61;99840.13;5042884;28;20016;-96
2023/12/27 06:09:17;;;;;;;7.03;3.10;;;;;;;8.36;67.91;99886.19;5061069;28;20024;-96
2023/12/27 06:11:43;;;;;;;4.78;3.00;;;;;;;8.26;67.86;99876.91;5042851;28;20055;-96
2023/12/27 06:14:11;;;;;;;7.65;3.97;;;;;;;8.26;67.41;99862.69;5042042;28;20021;-96
2023/12/27 06:16:37;;;;;;;9.02;3.53;;;;;;;8.32;67.09;99869.75;5043948;28;20021;-94
2023/12/27 06:19:03;;;;;;;5.32;3.20;;;;;;;8.49;67.43;99889.41;5043296;28;20044;-96
2023/12/27 06:21:29;;;;;;;9.80;3.67;;;;;;;8.48;67.43;99873.56;5043821;28;20033;-96
2023/12/27 06:23:55;;;;;;;10.82;3.28;;;;;;;8.74;66.71;99900.84;5043320;28;20024;-96
2023/12/27 06:26:22;;;;;;;8.52;3.70;;;;;;;8.87;66.48;99897.81;5045386;28;20038;-96
2023/12/27 06:28:48;;;;;;;7.22;3.05;;;;;;;8.94;66.21;99893.09;5043603;28;20042;-96
2023/12/27 06:31:13;;;;;;;6.10;3.20;;;;;;;9.00;65.52;99883.25;5059628;28;20028;-96
2023/12/27 06:33:39;;;;;;;6.78;2.95;;;;;;;9.16;65.29;99901.22;5044003;28;20044;-96
2023/12/27 06:36:08;;;;;;;5.55;2.40;;;;;;;9.34;64.56;99907.38;5043156;28;20028;-96
2023/12/27 06:38:33;;;;;;;8.77;3.67;;;;;;;9.53;64.42;99919.50;5061605;28;20029;-96
2023/12/27 06:41:02;;;;;;;5.40;3.00;;;;;;;9.60;64.02;99916.63;5043309;28;20032;-96
2023/12/27 06:43:31;;;;;;;8.45;3.03;;;;;;;9.62;63.47;99899.19;5044118;28;20025;-96
2023/12/27 06:46:00;;;;;;;6.35;3.10;;;;;;;9.82;62.61;99909.38;5045303;28;20058;-96
2023/12/27 06:48:25;;;;;;;6.07;3.10;;;;;;;9.81;62.76;99915.00;5045982;28;20040;-96
2023/12/27 06:50:51;;;;;;;9.70;3.55;;;;;;;9.95;62.26;99923.53;5048101;28;20033;-96
2023/12/27 06:53:22;;;;;;;6.18;2.50;;;;;;;10.08;61.61;99926.63;5049637;28;20526;-96
2023/12/27 06:55:48;;;;;;;4.30;2.72;;;;;;;10.25;61.10;99939.19;5051474;28;20037;-96
2023/12/27 06:58:14;;;;;;;7.20;3.40;;;;;;;10.40;61.07;99952.06;5049700;28;20066;-96
2023/12/27 07:00:40;;;;;;;5.13;2.72;;;;;;;10.32;60.96;99943.34;5063388;28;20024;-94
2023/12/27 07:03:05;;;;;;;12.10;3.80;;;;;;;10.35;60.59;99943.94;5060588;28;20032;-94
2023/12/27 07:05:31;;;;;;;6.13;2.95;;;;;;;10.41;60.41;99946.41;5044288;28;20505;-96
2023/12/27 07:07:57;;;;;;;5.85;2.90;;;;;;;10.56;60.35;99961.91;5043919;28;20032;-95
2023/12/27 07:10:22;;;;;;;8.05;3.28;;;;;;;10.71;59.78;99980.13;5044396;28;20064;-95
2023/12/27 07:12:48;;;;;;;8.65;3.47;;;;;;;10.70;59.09;99957.75;5060735;28;20036;-95
2023/12/27 07:15:13;;;;;;;7.22;3.00;;;;;;;10.86;58.74;99974.06;5043714;28;20031;-94
2023/12/27 07:17:42;;;;;;;7.38;3.38;;;;;;;10.86;58.72;99969.47;5043057;28;20024;-94
2023/12/27 07:20:11;;;;;;;6.20;3.25;;;;;;;10.89;58.80;99971.69;5043342;28;20037;-94
2023/12/27 07:22:36;;;;;;;7.68;3.95;;;;;;;10.86;59.08;99964.09;5059190;28;20025;-95
2023/12/27 07:25:02;;;;;;;6.53;3.75;;;;;;;11.02;58.67;99975.00;5042553;28;20024;-94
2023/12/27 07:27:28;;;;;;;7.82;3.25;;;;;;;10.99;58.46;99965.56;5043494;28;20028;-94
2023/12/27 07:29:53;;;;;;;7.13;3.13;;;;;;;11.10;58.05;99985.31;5043622;28;20054;-94
2023/12/27 07:32:20;;;;;;;9.27;2.90;;;;;;;11.23;57.40;99992.97;5060244;28;20029;-94
2023/12/27 07:34:45;;;;;;;6.93;2.80;;;;;;;11.30;57.10;100011.63;5043644;28;20020;-94
2023/12/27 07:37:11;;;;;;;9.07;3.65;;;;;;;11.39;56.61;100012.75;5043481;28;20020;-94
2023/12/27 07:39:37;;;;;;;8.00;3.58;;;;;;;11.50;56.25;100038.75;5044387;28;20074;-96
2023/12/27 07:42:03;;;;;;;5.78;2.60;;;;;;;11.56;55.78;100018.03;5059727;28;20107;-95
2023/12/27 07:44:29;;;;;;;8.32;2.53;;;;;;;11.63;55.34;100012.41;5061738;28;20383;-95
2023/12/27 07:46:57;;;;;;;6.25;2.90;;;;;;;11.58;55.29;100007.81;5048850;28;20115;-96
2023/12/27 07:49:25;;;;;;;9.75;3.55;;;;;;;11.64;55.32;100022.97;5045674;28;20033;-96
2023/12/27 07:51:51;;;;;;;10.23;2.75;;;;;;;11.58;54.49;100013.19;5052750;28;20032;-94
2023/12/27 07:54:16;;;;;;;6.40;2.55;;;;;;;11.78;54.47;100025.19;5049194;28;20479;-93
2023/12/27 07:56:42;;;;;;;10.23;2.35;;;;;;;11.72;54.33;100024.34;5047322;28;20449;-94
2023/12/27 07:59:08;;;;;;;4.65;2.53;;;;;;;11.68;54.33;100020.53;5062280;28;20025;-95
2023/12/27 08:01:54;;;;;;;5.00;2.45;;;;;;;11.88;53.76;100033.34;5044306;28;20039;-94
2023/12/27 08:04:19;;;;;;;7.47;2.40;;;;;;;11.97;53.54;100050.69;5045458;28;20025;-95
2023/12/27 08:06:45;;;;;;;4.93;2.17;;;;;;;11.72;53.42;100011.69;5045677;28;20028;-95
2023/12/27 08:09:11;;;;;;;5.25;1.95;;;;;;;11.89;53.48;100032.28;5045893;28;20031;-95
2023/12/27 08:11:37;;;;;;;5.93;2.00;;;;;;;11.95;53.52;100041.25;5045659;28;20038;-95
2023/12/27 08:14:03;;;;;;;4.75;1.95;;;;;;;11.85;52.96;100029.28;5046150;28;20037;-95
2023/12/27 08:16:28;;;;;;;4.65;2.15;;;;;;;11.89;53.01;100022.34;5044947;28;20039;-95
2023/12/27 08:18:54;;;;;;;4.50;2.13;;;;;;;11.98;52.45;100024.53;5044645;28;20028;-95
2023/12/27 08:21:23;;;;;;;5.55;2.30;;;;;;;11.89;52.60;100008.84;5062707;28;20112;-95
2023/12/27 08:23:49;;;;;;;3.65;2.17;;;;;;;12.02;51.94;100028.34;5044499;28;20035;-95
2023/12/27 08:26:14;;;;;;;4.30;2.20;;;;;;;12.26;51.66;100048.41;5045408;28;20025;-95
2023/12/27 08:28:40;;;;;;;7.57;2.38;;;;;;;12.45;51.00;100018.25;5045403;28;20142;-95
2023/12/27 08:31:06;;;;;;;5.07;2.20;;;;;;;13.20;49.12;100034.91;5046110;28;20029;-94
2023/12/27 08:33:35;;;;;;;2.88;1.50;;;;;;;13.54;47.16;100021.66;5047086;28;20133;-94
2023/12/27 08:36:01;;;;;;;3.28;1.60;;;;;;;13.35;47.75;100017.91;5062529;28;20029;-95
2023/12/27 08:38:27;;;;;;;3.63;1.75;;;;;;;13.07;48.28;100014.63;5061931;28;20039;-95
2023/12/27 08:40:53;;;;;;;5.68;1.75;;;;;;;13.08;48.38;100031.66;5045176;28;20059;-95
2023/12/27 08:43:18;;;;;;;4.15;1.65;;;;;;;13.07;48.58;100043.53;5044712;28;20426;-95
2023/12/27 08:45:45;;;;;;;4.68;1.70;;;;;;;13.02;47.65;100030.81;5045875;28;20020;-95
2023/12/27 08:48:13;;;;;;;7.13;2.25;;;;;;;13.01;48.11;100026.50;5045110;28;20085;-94
2023/12/27 08:50:43;;;;;;;5.18;2.88;;;;;;;13.12;48.40;100044.34;5046347;28;20060;-94
2023/12/27 08:53:11;;;;;;;3.08;1.98;;;;;;;13.01;47.61;100017.56;5042385;28;20021;-95
2023/12/27 08:55:39;;;;;;;2.78;1.60;;;;;;;13.04;46.90;100036.78;5035829;28;20024;-95
2023/12/27 08:58:05;;;;;;;3.05;1.17;;;;;;;12.99;46.78;100034.09;5046537;28;20048;-95
2023/12/27 09:00:34;;;;;;;2.78;1.42;;;;;;;13.05;46.92;100035.72;5045650;28;20035;-94
2023/12/27 09:03:00;;;;;;;3.72;1.40;;;;;;;12.95;46.66;100022.19;5045126;28;20422;-96
2023/12/27 09:05:25;;;;;;;3.15;1.80;;;;;;;13.00;46.49;100015.97;5045312;28;20028;-95
2023/12/27 09:07:51;;;;;;;9.82;1.60;;;;;;;13.05;46.37;100026.78;5045794;28;20020;-96
2023/12/27 09:10:17;;;;;;;10.35;2.45;;;;;;;13.08;46.52;100042.47;5044919;28;20051;-96
2023/12/27 09:12:43;;;;;;;7.85;2.65;;;;;;;12.92;46.23;100001.88;5044859;28;20036;-93
2023/12/27 09:15:09;;;;;;;5.18;1.75;;;;;;;13.23;46.06;100049.78;5044467;28;20021;-94
2023/12/27 09:17:35;;;;;;;4.28;1.95;;;;;;;13.10;45.71;100035.72;5045788;28;20509;-95
2023/12/27 09:20:01;;;;;;;6.40;1.63;;;;;;;13.05;45.91;100024.06;5046196;28;20028;-95
2023/12/27 09:22:27;;;;;;;3.45;1.65;;;;;;;13.08;45.83;100028.94;5065354;28;20389;-95
2023/12/27 09:24:54;;;;;;;6.40;1.45;;;;;;;13.04;46.29;100020.56;5047547;28;20025;-94
2023/12/27 09:27:20;;;;;;;3.53;1.20;;;;;;;13.21;45.26;100039.22;5064572;28;20497;-93
2023/12/27 09:29:45;;;;;;;2.90;1.40;;;;;;;13.10;45.26;100022.19;5048372;28;20029;-93
2023/12/27 09:32:11;;;;;;;4.35;1.60;;;;;;;13.27;44.50;100040.84;5061084;28;20028;-94
2023/12/27 09:34:36;;;;;;;3.05;1.48;;;;;;;13.24;44.76;100029.75;5042680;28;20020;-94
2023/12/27 09:37:03;;;;;;;2.72;1.55;;;;;;;13.29;44.85;100035.22;5043860;28;20124;-96
2023/12/27 09:39:32;;;;;;;7.57;2.47;;;;;;;13.29;44.55;100019.78;5060901;28;20028;-93
2023/12/27 09:42:00;;;;;;;6.78;1.58;;;;;;;13.33;44.63;100006.53;5043644;28;20037;-93
2023/12/27 09:44:26;;;;;;;2.65;1.48;;;;;;;13.33;44.57;100017.38;5044631;28;20020;-94
2023/12/27 09:46:55;;;;;;;2.88;1.30;;;;;;;13.60;44.05;100054.16;5044680;28;20109;-93
2023/12/27 09:49:23;;;;;;;5.18;1.60;;;;;;;13.49;44.31;100029.00;5042591;28;20031;-94
2023/12/27 09:51:48;;;;;;;3.95;1.52;;;;;;;13.53;44.20;100011.16;5042371;28;20025;-94
2023/12/27 09:54:17;;;;;;;2.90;1.50;;;;;;;13.59;44.14;100009.22;5043080;28;20027;-94
2023/12/27 09:56:43;;;;;;;3.33;1.50;;;;;;;13.61;43.89;100015.16;5059213;28;20016;-94
2023/12/27 09:59:11;;;;;;;3.83;1.70;;;;;;;13.65;43.63;100000.00;5059147;28;20028;-96
2023/12/27 10:01:40;;;;;;;2.47;1.40;;;;;;;13.65;43.89;100010.84;5059073;28;20025;-94
2023/12/27 10:04:27;;;;;;;4.50;2.40;;;;;;;13.78;43.81;100031.94;5059764;28;20101;-94
2023/12/27 10:06:53;;;;;;;4.05;1.80;;;;;;;13.64;43.87;100001.13;5075135;28;20067;-93
2023/12/27 10:09:18;;;;;;;3.15;1.40;;;;;;;13.70;43.37;100010.84;5041203;28;20028;-93
2023/12/27 10:11:44;;;;;;;3.88;1.42;;;;;;;13.76;43.42;100007.03;5060966;28;20036;-91
2023/12/27 10:14:10;;;;;;;3.17;1.38;;;;;;;13.74;43.63;100003.81;5042953;28;20040;-94
2023/12/27 10:16:38;;;;;;;2.45;1.40;;;;;;;13.86;43.34;100019.72;5057900;28;20122;-94
2023/12/27 10:19:10;;;;;;;2.92;1.63;;;;;;;13.84;43.71;100014.59;5061243;28;20040;-94
2023/12/27 10:21:42;;;;;;;4.97;1.50;;;;;;;13.84;43.45;100028.16;5044750;28;20039;-95
2023/12/27 10:24:17;;;;;;;5.47;1.88;;;;;;;13.93;43.55;100026.47;5058468;28;20020;-95
2023/12/27 10:26:43;;;;;;;3.30;1.50;;;;;;;13.96;43.56;100014.28;5059445;28;20031;-95
2023/12/27 10:29:09;;;;;;;7.00;1.80;;;;;;;13.96;43.54;100008.88;5041702;28;20020;-94
2023/12/27 10:31:34;;;;;;;3.95;1.70;;;;;;;13.80;43.52;99972.94;5057900;28;20008;-94
2023/12/27 10:34:03;;;;;;;4.03;1.45;;;;;;;14.09;43.28;99994.75;5058052;28;20058;-94
2023/12/27 10:36:30;;;;;;;3.25;1.60;;;;;;;14.09;43.17;99996.63;5042834;28;20025;-94
2023/12/27 10:39:02;;;;;;;3.65;1.40;;;;;;;14.06;42.98;99981.75;5041762;28;20098;-94
2023/12/27 10:41:29;;;;;;;2.72;1.40;;;;;;;14.14;43.11;99997.44;5060476;28;20120;-95
2023/12/27 10:43:54;;;;;;;4.30;1.48;;;;;;;14.31;43.00;100005.22;5059073;28;20442;-95
2023/12/27 10:46:23;;;;;;;4.53;1.67;;;;;;;14.30;43.07;100006.31;5041050;28;20066;-94
2023/12/27 10:48:50;;;;;;;4.10;1.48;;;;;;;14.22;43.37;100006.09;5058413;28;20116;-95
2023/12/27 10:51:18;;;;;;;2.35;1.35;;;;;;;14.15;43.38;100004.50;5041881;28;20030;-94
2023/12/27 10:53:44;;;;;;;4.50;1.48;;;;;;;14.15;42.93;100000.94;5058210;28;20028;-94
2023/12/27 10:56:09;;;;;;;2.10;1.30;;;;;;;14.33;43.20;100013.88;5042245;28;20036;-95
2023/12/27 10:58:45;;;;;;;3.83;1.70;;;;;;;14.32;43.29;100009.56;5057685;28;20094;-96
2023/12/27 11:01:11;;;;;;;2.88;1.40;;;;;;;14.26;43.48;99996.34;5051416;28;20109;-94
2023/12/27 11:03:40;;;;;;;2.70;1.52;;;;;;;14.26;43.76;100005.25;5040479;28;20091;-94
2023/12/27 11:06:05;;;;;;;3.63;1.60;;;;;;;14.30;43.39;100008.22;5041446;28;20036;-95
2023/12/27 11:08:31;;;;;;;3.28;1.52;;;;;;;14.32;43.26;100006.84;5059181;28;20025;-93
2023/12/27 11:11:05;;;;;;;4.38;1.98;;;;;;;14.35;43.09;100025.25;5040898;28;20025;-93
2023/12/27 11:13:31;;;;;;;3.70;1.75;;;;;;;14.28;42.78;100007.69;5059225;28;20035;-95
2023/12/27 11:15:57;;;;;;;3.13;1.52;;;;;;;14.30;42.78;100002.81;5058599;28;20028;-93
2023/12/27 11:18:25;;;;;;;2.13;1.50;;;;;;;14.28;43.14;100005.78;5056753;28;20044;-94
2023/12/27 11:20:51;;;;;;;4.40;1.40;;;;;;;14.25;43.00;99997.41;5062287;28;20128;-94
2023/12/27 11:23:17;;;;;;;2.55;1.25;;;;;;;14.32;42.70;100000.63;5046020;28;20476;-94
2023/12/27 11:25:43;;;;;;;2.53;1.30;;;;;;;14.38;42.80;100012.25;5061926;28;20423;-94
2023/12/27 11:28:11;;;;;;;2.50;1.60;;;;;;;14.20;42.89;99986.59;5046048;28;20119;-94
2023/12/27 11:30:36;;;;;;;2.25;1.30;;;;;;;14.35;42.79;100021.75;5045734;28;20024;-94